sensor_id;sensor_type;location;lat;lon;timestamp;pressure;altitude;pressure_sealevel;temperature;humidity
45253;BME280;63171;50.520;30.486;2023-10-09T00:00:03;99656.88;;;6.74;56.83
45253;BME280;63171;50.520;30.486;2023-10-09T00:02:55;99656.28;;;6.69;56.93
45253;BME280;63171;50.520;30.486;2023-10-09T00:03:47;99658.94;;;6.67;56.90
45253;BME280;63171;50.520;30.486;2023-10-09T00:04:43;99629.94;;;6.58;56.78
45253;BME280;63171;50.520;30.486;2023-10-09T00:05:34;99653.56;;;6.53;56.80
45253;BME280;63171;50.520;30.486;2023-10-09T00:06:34;99666.53;;;6.55;56.95
45253;BME280;63171;50.520;30.486;2023-10-09T00:07:26;99668.25;;;6.54;57.01
45253;BME280;63171;50.520;30.486;2023-10-09T00:08:16;99663.97;;;6.53;56.86
45253;BME280;63171;50.520;30.486;2023-10-09T00:09:09;99670.72;;;6.57;57.06
45253;BME280;63171;50.520;30.486;2023-10-09T00:10:06;99667.22;;;6.58;57.04
45253;BME280;63171;50.520;30.486;2023-10-09T00:11:02;99673.66;;;6.68;57.25
45253;BME280;63171;50.520;30.486;2023-10-09T00:12:02;99663.09;;;6.71;57.28
45253;BME280;63171;50.520;30.486;2023-10-09T00:12:59;99659.72;;;6.69;57.38
45253;BME280;63171;50.520;30.486;2023-10-09T00:13:48;99671.09;;;6.67;57.16
45253;BME280;63171;50.520;30.486;2023-10-09T00:14:43;99677.09;;;6.69;57.42
45253;BME280;63171;50.520;30.486;2023-10-09T00:15:37;99679.13;;;6.62;57.27
45253;BME280;63171;50.520;30.486;2023-10-09T00:16:28;99686.66;;;6.68;57.41
45253;BME280;63171;50.520;30.486;2023-10-09T00:17:32;99696.22;;;6.68;57.37
45253;BME280;63171;50.520;30.486;2023-10-09T00:18:22;99672.09;;;6.64;57.37
45253;BME280;63171;50.520;30.486;2023-10-09T00:19:17;99675.53;;;6.65;57.46
45253;BME280;63171;50.520;30.486;2023-10-09T00:20:09;99686.78;;;6.65;57.57
45253;BME280;63171;50.520;30.486;2023-10-09T00:21:08;99688.63;;;6.63;57.58
45253;BME280;63171;50.520;30.486;2023-10-09T00:22:09;99688.72;;;6.62;57.54
45253;BME280;63171;50.520;30.486;2023-10-09T00:23:08;99681.13;;;6.57;57.59
45253;BME280;63171;50.520;30.486;2023-10-09T00:24:04;99682.81;;;6.58;57.76
45253;BME280;63171;50.520;30.486;2023-10-09T00:25:02;99684.44;;;6.61;57.90
45253;BME280;63171;50.520;30.486;2023-10-09T00:25:59;99681.13;;;6.57;57.72
45253;BME280;63171;50.520;30.486;2023-10-09T00:27:02;99691.66;;;6.54;57.84
45253;BME280;63171;50.520;30.486;2023-10-09T00:28:01;99695.66;;;6.61;58.05
45253;BME280;63171;50.520;30.486;2023-10-09T00:28:54;99694.00;;;6.60;57.80
45253;BME280;63171;50.520;30.486;2023-10-09T00:29:45;99687.09;;;6.59;57.97
45253;BME280;63171;50.520;30.486;2023-10-09T00:30:40;99688.78;;;6.60;58.24
45253;BME280;63171;50.520;30.486;2023-10-09T00:31:30;99687.88;;;6.61;58.23
45253;BME280;63171;50.520;30.486;2023-10-09T00:32:23;99688.31;;;6.52;58.05
45253;BME280;63171;50.520;30.486;2023-10-09T00:33:15;99686.34;;;6.57;58.23
45253;BME280;63171;50.520;30.486;2023-10-09T00:34:05;99689.03;;;6.56;58.17
45253;BME280;63171;50.520;30.486;2023-10-09T00:34:55;99696.03;;;6.53;58.06
45253;BME280;63171;50.520;30.486;2023-10-09T00:35:47;99689.88;;;6.56;58.41
45253;BME280;63171;50.520;30.486;2023-10-09T00:36:43;99690.13;;;6.50;58.69
45253;BME280;63171;50.520;30.486;2023-10-09T00:37:39;99699.84;;;6.46;58.42
45253;BME280;63171;50.520;30.486;2023-10-09T00:38:29;99704.75;;;6.52;58.58
45253;BME280;63171;50.520;30.486;2023-10-09T00:39:22;99697.88;;;6.51;58.81
45253;BME280;63171;50.520;30.486;2023-10-09T00:40:30;99705.75;;;6.50;58.67
45253;BME280;63171;50.520;30.486;2023-10-09T00:41:22;99678.75;;;6.52;58.85
45253;BME280;63171;50.520;30.486;2023-10-09T00:42:14;99697.03;;;6.51;58.82
45253;BME280;63171;50.520;30.486;2023-10-09T00:43:15;99698.50;;;6.57;59.08
45253;BME280;63171;50.520;30.486;2023-10-09T00:44:05;99705.47;;;6.56;58.94
45253;BME280;63171;50.520;30.486;2023-10-09T00:44:58;99710.69;;;6.56;58.96
45253;BME280;63171;50.520;30.486;2023-10-09T00:45:53;99710.34;;;6.45;58.90
45253;BME280;63171;50.520;30.486;2023-10-09T00:46:43;99688.19;;;6.36;58.99
45253;BME280;63171;50.520;30.486;2023-10-09T00:47:36;99692.63;;;6.34;59.18
45253;BME280;63171;50.520;30.486;2023-10-09T00:48:30;99710.09;;;6.32;59.22
45253;BME280;63171;50.520;30.486;2023-10-09T00:49:20;99709.38;;;6.29;59.10
45253;BME280;63171;50.520;30.486;2023-10-09T00:50:11;99715.44;;;6.29;59.29
45253;BME280;63171;50.520;30.486;2023-10-09T00:51:10;99719.56;;;6.33;59.33
45253;BME280;63171;50.520;30.486;2023-10-09T00:52:05;99710.78;;;6.36;59.55
45253;BME280;63171;50.520;30.486;2023-10-09T00:53:06;99714.38;;;6.33;59.55
45253;BME280;63171;50.520;30.486;2023-10-09T00:54:01;99718.56;;;6.36;59.54
45253;BME280;63171;50.520;30.486;2023-10-09T00:54:56;99715.81;;;6.39;59.73
45253;BME280;63171;50.520;30.486;2023-10-09T00:55:50;99722.34;;;6.47;59.65
45253;BME280;63171;50.520;30.486;2023-10-09T00:56:45;99712.72;;;6.49;59.95
45253;BME280;63171;50.520;30.486;2023-10-09T00:57:46;99715.16;;;6.52;60.04
45253;BME280;63171;50.520;30.486;2023-10-09T00:58:46;99708.50;;;6.47;59.89
45253;BME280;63171;50.520;30.486;2023-10-09T00:59:35;99708.44;;;6.48;60.04
45253;BME280;63171;50.520;30.486;2023-10-09T01:00:29;99715.16;;;6.52;60.17
45253;BME280;63171;50.520;30.486;2023-10-09T01:01:21;99727.47;;;6.49;60.13
45253;BME280;63171;50.520;30.486;2023-10-09T01:02:17;99720.06;;;6.41;60.08
45253;BME280;63171;50.520;30.486;2023-10-09T01:03:09;99721.16;;;6.36;60.10
45253;BME280;63171;50.520;30.486;2023-10-09T01:04:08;99721.31;;;6.33;60.08
45253;BME280;63171;50.520;30.486;2023-10-09T01:04:59;99716.28;;;6.30;60.23
45253;BME280;63171;50.520;30.486;2023-10-09T01:06:00;99719.16;;;6.23;60.18
45253;BME280;63171;50.520;30.486;2023-10-09T01:07:05;99716.28;;;6.30;60.24
45253;BME280;63171;50.520;30.486;2023-10-09T01:07:58;99716.63;;;6.22;60.26
45253;BME280;63171;50.520;30.486;2023-10-09T01:08:47;99720.22;;;6.19;60.14
45253;BME280;63171;50.520;30.486;2023-10-09T01:09:46;99706.53;;;6.16;60.38
45253;BME280;63171;50.520;30.486;2023-10-09T01:10:44;99720.38;;;6.16;60.30
45253;BME280;63171;50.520;30.486;2023-10-09T01:11:39;99721.22;;;6.17;60.38
45253;BME280;63171;50.520;30.486;2023-10-09T01:12:51;99731.53;;;6.18;60.49
45253;BME280;63171;50.520;30.486;2023-10-09T01:13:45;99737.56;;;6.19;60.61
45253;BME280;63171;50.520;30.486;2023-10-09T01:14:41;99733.97;;;6.21;60.27
45253;BME280;63171;50.520;30.486;2023-10-09T01:15:33;99724.66;;;6.17;60.83
45253;BME280;63171;50.520;30.486;2023-10-09T01:16:33;99721.28;;;6.15;60.87
45253;BME280;63171;50.520;30.486;2023-10-09T01:17:22;99734.06;;;6.20;60.77
45253;BME280;63171;50.520;30.486;2023-10-09T01:18:24;99739.03;;;6.25;60.78
45253;BME280;63171;50.520;30.486;2023-10-09T01:19:20;99739.09;;;6.23;60.94
45253;BME280;63171;50.520;30.486;2023-10-09T01:20:12;99734.13;;;6.18;60.85
45253;BME280;63171;50.520;30.486;2023-10-09T01:21:11;99740.78;;;6.24;60.92
45253;BME280;63171;50.520;30.486;2023-10-09T01:22:03;99747.91;;;6.20;60.73
45253;BME280;63171;50.520;30.486;2023-10-09T01:23:03;99745.16;;;6.23;61.21
45253;BME280;63171;50.520;30.486;2023-10-09T01:23:52;99744.09;;;6.28;61.15
45253;BME280;63171;50.520;30.486;2023-10-09T01:24:53;99744.31;;;6.23;61.30
45253;BME280;63171;50.520;30.486;2023-10-09T01:25:45;99740.09;;;6.20;61.04
45253;BME280;63171;50.520;30.486;2023-10-09T01:26:39;99760.97;;;6.19;61.14
45253;BME280;63171;50.520;30.486;2023-10-09T01:27:29;99760.97;;;6.19;61.32
45253;BME280;63171;50.520;30.486;2023-10-09T01:28:22;99753.94;;;6.21;61.16
45253;BME280;63171;50.520;30.486;2023-10-09T01:29:13;99743.31;;;6.26;61.35
45253;BME280;63171;50.520;30.486;2023-10-09T01:30:09;99745.28;;;6.20;61.29
45253;BME280;63171;50.520;30.486;2023-10-09T01:31:03;99757.22;;;6.25;61.25
45253;BME280;63171;50.520;30.486;2023-10-09T01:31:56;99739.19;;;6.21;61.56
45253;BME280;63171;50.520;30.486;2023-10-09T01:32:49;99753.78;;;6.24;61.54
45253;BME280;63171;50.520;30.486;2023-10-09T01:33:39;99756.41;;;6.24;61.53
45253;BME280;63171;50.520;30.486;2023-10-09T01:34:31;99748.41;;;6.29;61.59
45253;BME280;63171;50.520;30.486;2023-10-09T01:35:27;99752.59;;;6.31;61.48
45253;BME280;63171;50.520;30.486;2023-10-09T01:36:21;99735.81;;;6.19;61.60
45253;BME280;63171;50.520;30.486;2023-10-09T01:37:20;99755.28;;;6.11;61.49
45253;BME280;63171;50.520;30.486;2023-10-09T01:38:15;99752.59;;;6.12;61.39
45253;BME280;63171;50.520;30.486;2023-10-09T01:39:04;99751.50;;;6.18;61.73
45253;BME280;63171;50.520;30.486;2023-10-09T01:39:59;99749.91;;;6.14;61.68
45253;BME280;63171;50.520;30.486;2023-10-09T01:41:13;99759.44;;;6.15;61.67
45253;BME280;63171;50.520;30.486;2023-10-09T01:42:05;99755.19;;;6.12;61.83
45253;BME280;63171;50.520;30.486;2023-10-09T01:42:57;99750.97;;;6.10;61.95
45253;BME280;63171;50.520;30.486;2023-10-09T01:43:46;99759.47;;;6.13;61.89
45253;BME280;63171;50.520;30.486;2023-10-09T01:44:39;99762.72;;;6.18;62.12
45253;BME280;63171;50.520;30.486;2023-10-09T01:45:33;99754.28;;;6.13;61.99
45253;BME280;63171;50.520;30.486;2023-10-09T01:46:31;99749.31;;;6.09;62.06
45253;BME280;63171;50.520;30.486;2023-10-09T01:47:22;99753.88;;;6.04;62.11
45253;BME280;63171;50.520;30.486;2023-10-09T01:48:14;99766.88;;;6.04;62.19
45253;BME280;63171;50.520;30.486;2023-10-09T01:49:12;99755.72;;;6.02;62.14
45253;BME280;63171;50.520;30.486;2023-10-09T01:50:10;99767.88;;;6.01;61.93
45253;BME280;63171;50.520;30.486;2023-10-09T01:51:12;99766.50;;;6.11;62.12
45253;BME280;63171;50.520;30.486;2023-10-09T01:52:03;99771.44;;;6.17;62.03
45253;BME280;63171;50.520;30.486;2023-10-09T01:52:57;99769.47;;;6.22;62.35
45253;BME280;63171;50.520;30.486;2023-10-09T01:53:51;99775.44;;;6.25;62.38
45253;BME280;63171;50.520;30.486;2023-10-09T01:54:47;99764.34;;;6.21;62.32
45253;BME280;63171;50.520;30.486;2023-10-09T01:55:38;99768.09;;;6.15;62.21
45253;BME280;63171;50.520;30.486;2023-10-09T01:56:30;99757.69;;;6.15;62.40
45253;BME280;63171;50.520;30.486;2023-10-09T01:57:20;99777.56;;;6.16;62.33
45253;BME280;63171;50.520;30.486;2023-10-09T01:58:12;99774.31;;;6.11;62.36
45253;BME280;63171;50.520;30.486;2023-10-09T01:59:13;99778.97;;;6.05;62.37
45253;BME280;63171;50.520;30.486;2023-10-09T02:00:05;99783.16;;;6.07;62.38
45253;BME280;63171;50.520;30.486;2023-10-09T02:01:01;99777.75;;;6.12;62.47
45253;BME280;63171;50.520;30.486;2023-10-09T02:01:51;99781.13;;;6.14;62.42
45253;BME280;63171;50.520;30.486;2023-10-09T02:02:47;99782.09;;;6.11;62.57
45253;BME280;63171;50.520;30.486;2023-10-09T02:03:39;99787.13;;;6.16;62.60
45253;BME280;63171;50.520;30.486;2023-10-09T02:04:31;99781.84;;;6.17;62.41
45253;BME280;63171;50.520;30.486;2023-10-09T02:05:20;99787.59;;;6.24;62.68
45253;BME280;63171;50.520;30.486;2023-10-09T02:06:15;99785.66;;;6.29;62.78
45253;BME280;63171;50.520;30.486;2023-10-09T02:07:15;99786.41;;;6.31;62.58
45253;BME280;63171;50.520;30.486;2023-10-09T02:08:11;99783.47;;;6.20;62.55
45253;BME280;63171;50.520;30.486;2023-10-09T02:09:03;99792.94;;;6.21;62.69
45253;BME280;63171;50.520;30.486;2023-10-09T02:09:55;99788.38;;;6.26;62.84
45253;BME280;63171;50.520;30.486;2023-10-09T02:10:45;99796.16;;;6.26;62.75
45253;BME280;63171;50.520;30.486;2023-10-09T02:11:38;99794.78;;;6.19;62.82
45253;BME280;63171;50.520;30.486;2023-10-09T02:12:30;99784.63;;;6.13;62.45
45253;BME280;63171;50.520;30.486;2023-10-09T02:13:22;99790.63;;;6.15;62.69
45253;BME280;63171;50.520;30.486;2023-10-09T02:14:18;99787.38;;;6.10;62.68
45253;BME280;63171;50.520;30.486;2023-10-09T02:15:14;99793.56;;;6.07;62.84
45253;BME280;63171;50.520;30.486;2023-10-09T02:16:04;99794.41;;;6.08;62.61
45253;BME280;63171;50.520;30.486;2023-10-09T02:17:04;99789.78;;;6.14;62.69
45253;BME280;63171;50.520;30.486;2023-10-09T02:17:57;99797.44;;;6.17;62.74
45253;BME280;63171;50.520;30.486;2023-10-09T02:18:50;99808.63;;;6.19;62.80
45253;BME280;63171;50.520;30.486;2023-10-09T02:19:45;99792.72;;;6.26;62.88
45253;BME280;63171;50.520;30.486;2023-10-09T02:20:38;99796.25;;;6.25;62.93
45253;BME280;63171;50.520;30.486;2023-10-09T02:21:28;99799.13;;;6.18;62.67
45253;BME280;63171;50.520;30.486;2023-10-09T02:22:22;99798.38;;;6.16;62.76
45253;BME280;63171;50.520;30.486;2023-10-09T02:23:15;99803.34;;;6.21;62.77
45253;BME280;63171;50.520;30.486;2023-10-09T02:24:07;99798.84;;;6.25;62.76
45253;BME280;63171;50.520;30.486;2023-10-09T02:25:01;99800.53;;;6.26;62.80
45253;BME280;63171;50.520;30.486;2023-10-09T02:25:55;99807.31;;;6.30;62.83
45253;BME280;63171;50.520;30.486;2023-10-09T02:26:45;99799.84;;;6.22;62.89
45253;BME280;63171;50.520;30.486;2023-10-09T02:27:50;99806.16;;;6.16;62.72
45253;BME280;63171;50.520;30.486;2023-10-09T02:28:43;99795.88;;;6.13;62.79
45253;BME280;63171;50.520;30.486;2023-10-09T02:29:33;99800.91;;;6.18;62.97
45253;BME280;63171;50.520;30.486;2023-10-09T02:30:24;99786.31;;;6.14;62.88
45253;BME280;63171;50.520;30.486;2023-10-09T02:31:17;99799.06;;;6.01;62.68
45253;BME280;63171;50.520;30.486;2023-10-09T02:32:11;99821.56;;;6.01;62.74
45253;BME280;63171;50.520;30.486;2023-10-09T02:33:14;99813.66;;;6.04;62.98
45253;BME280;63171;50.520;30.486;2023-10-09T02:34:10;99812.81;;;6.03;62.73
45253;BME280;63171;50.520;30.486;2023-10-09T02:35:00;99804.31;;;6.00;62.83
45253;BME280;63171;50.520;30.486;2023-10-09T02:35:58;99816.13;;;6.07;62.76
45253;BME280;63171;50.520;30.486;2023-10-09T02:36:54;99823.84;;;6.08;63.13
45253;BME280;63171;50.520;30.486;2023-10-09T02:37:46;99827.50;;;6.04;63.15
45253;BME280;63171;50.520;30.486;2023-10-09T02:38:36;99827.28;;;6.09;63.15
45253;BME280;63171;50.520;30.486;2023-10-09T02:39:31;99821.19;;;6.10;63.18
45253;BME280;63171;50.520;30.486;2023-10-09T02:40:33;99823.59;;;6.14;63.17
45253;BME280;63171;50.520;30.486;2023-10-09T02:41:29;99815.72;;;6.16;63.13
45253;BME280;63171;50.520;30.486;2023-10-09T02:42:23;99819.25;;;6.15;63.19
45253;BME280;63171;50.520;30.486;2023-10-09T02:43:13;99830.41;;;6.17;63.20
45253;BME280;63171;50.520;30.486;2023-10-09T02:44:07;99831.41;;;6.14;63.28
45253;BME280;63171;50.520;30.486;2023-10-09T02:45:00;99827.09;;;6.13;63.56
45253;BME280;63171;50.520;30.486;2023-10-09T02:45:53;99832.56;;;6.07;63.21
45253;BME280;63171;50.520;30.486;2023-10-09T02:46:43;99825.81;;;6.03;63.39
45253;BME280;63171;50.520;30.486;2023-10-09T02:47:33;99816.34;;;6.02;63.46
45253;BME280;63171;50.520;30.486;2023-10-09T02:48:28;99827.16;;;6.12;63.57
45253;BME280;63171;50.520;30.486;2023-10-09T02:49:23;99823.63;;;6.13;63.41
45253;BME280;63171;50.520;30.486;2023-10-09T02:50:13;99823.78;;;6.10;63.66
45253;BME280;63171;50.520;30.486;2023-10-09T02:51:08;99822.38;;;6.03;63.77
45253;BME280;63171;50.520;30.486;2023-10-09T02:52:04;99830.75;;;6.09;63.69
45253;BME280;63171;50.520;30.486;2023-10-09T02:52:56;99819.50;;;6.09;63.53
45253;BME280;63171;50.520;30.486;2023-10-09T02:53:50;99831.72;;;6.07;63.72
45253;BME280;63171;50.520;30.486;2023-10-09T02:54:40;99830.13;;;6.04;63.82
45253;BME280;63171;50.520;30.486;2023-10-09T02:55:31;99831.50;;;6.11;63.82
45253;BME280;63171;50.520;30.486;2023-10-09T02:56:27;99832.28;;;6.13;63.74
45253;BME280;63171;50.520;30.486;2023-10-09T02:57:26;99840.28;;;6.09;63.90
45253;BME280;63171;50.520;30.486;2023-10-09T02:58:25;99848.25;;;6.06;63.78
45253;BME280;63171;50.520;30.486;2023-10-09T02:59:15;99841.91;;;6.11;64.10
45253;BME280;63171;50.520;30.486;2023-10-09T03:00:05;99835.31;;;6.04;63.92
45253;BME280;63171;50.520;30.486;2023-10-09T03:00:58;99845.50;;;6.09;64.13
45253;BME280;63171;50.520;30.486;2023-10-09T03:01:49;99846.09;;;6.15;64.07
45253;BME280;63171;50.520;30.486;2023-10-09T03:02:38;99842.44;;;6.19;64.15
45253;BME280;63171;50.520;30.486;2023-10-09T03:03:30;99829.44;;;6.19;64.09
45253;BME280;63171;50.520;30.486;2023-10-09T03:04:23;99830.13;;;6.23;64.29
45253;BME280;63171;50.520;30.486;2023-10-09T03:05:13;99835.53;;;6.18;64.34
45253;BME280;63171;50.520;30.486;2023-10-09T03:06:04;99832.44;;;6.10;64.08
45253;BME280;63171;50.520;30.486;2023-10-09T03:07:00;99839.44;;;6.08;64.17
45253;BME280;63171;50.520;30.486;2023-10-09T03:07:50;99843.75;;;6.09;64.37
45253;BME280;63171;50.520;30.486;2023-10-09T03:08:42;99836.22;;;6.03;64.38
45253;BME280;63171;50.520;30.486;2023-10-09T03:09:31;99833.56;;;6.05;64.43
45253;BME280;63171;50.520;30.486;2023-10-09T03:10:23;99832.63;;;6.06;64.14
45253;BME280;63171;50.520;30.486;2023-10-09T03:11:14;99838.41;;;6.12;64.50
45253;BME280;63171;50.520;30.486;2023-10-09T03:12:04;99837.78;;;6.07;64.48
45253;BME280;63171;50.520;30.486;2023-10-09T03:12:55;99844.88;;;6.04;64.21
45253;BME280;63171;50.520;30.486;2023-10-09T03:13:45;99849.22;;;6.03;64.32
45253;BME280;63171;50.520;30.486;2023-10-09T03:14:40;99854.75;;;5.96;64.26
45253;BME280;63171;50.520;30.486;2023-10-09T03:15:30;99845.31;;;5.93;64.71
45253;BME280;63171;50.520;30.486;2023-10-09T03:16:25;99852.63;;;5.83;64.45
45253;BME280;63171;50.520;30.486;2023-10-09T03:17:16;99853.47;;;5.84;64.31
45253;BME280;63171;50.520;30.486;2023-10-09T03:18:05;99860.19;;;5.89;64.46
45253;BME280;63171;50.520;30.486;2023-10-09T03:18:55;99858.41;;;5.91;64.51
45253;BME280;63171;50.520;30.486;2023-10-09T03:19:46;99839.84;;;5.99;64.68
45253;BME280;63171;50.520;30.486;2023-10-09T03:20:36;99853.38;;;6.07;64.56
45253;BME280;63171;50.520;30.486;2023-10-09T03:21:26;99863.69;;;6.09;64.60
45253;BME280;63171;50.520;30.486;2023-10-09T03:22:16;99864.69;;;6.06;65.02
45253;BME280;63171;50.520;30.486;2023-10-09T03:23:05;99852.13;;;5.96;64.82
45253;BME280;63171;50.520;30.486;2023-10-09T03:23:59;99859.34;;;5.89;64.56
45253;BME280;63171;50.520;30.486;2023-10-09T03:24:54;99863.81;;;5.85;64.86
45253;BME280;63171;50.520;30.486;2023-10-09T03:25:45;99857.13;;;5.80;64.61
45253;BME280;63171;50.520;30.486;2023-10-09T03:26:35;99858.75;;;5.82;64.89
45253;BME280;63171;50.520;30.486;2023-10-09T03:27:24;99862.97;;;5.85;64.96
45253;BME280;63171;50.520;30.486;2023-10-09T03:28:14;99862.91;;;5.86;65.03
45253;BME280;63171;50.520;30.486;2023-10-09T03:29:04;99861.00;;;5.91;65.02
45253;BME280;63171;50.520;30.486;2023-10-09T03:29:59;99856.63;;;5.92;64.91
45253;BME280;63171;50.520;30.486;2023-10-09T03:30:48;99858.25;;;5.95;65.20
45253;BME280;63171;50.520;30.486;2023-10-09T03:31:39;99854.81;;;5.94;65.16
45253;BME280;63171;50.520;30.486;2023-10-09T03:32:32;99853.91;;;5.95;65.17
45253;BME280;63171;50.520;30.486;2023-10-09T03:33:23;99856.44;;;5.97;65.22
45253;BME280;63171;50.520;30.486;2023-10-09T03:34:14;99867.09;;;5.90;65.16
45253;BME280;63171;50.520;30.486;2023-10-09T03:35:04;99867.31;;;5.84;65.43
45253;BME280;63171;50.520;30.486;2023-10-09T03:35:55;99872.66;;;5.81;65.27
45253;BME280;63171;50.520;30.486;2023-10-09T03:36:46;99875.84;;;5.88;65.69
45253;BME280;63171;50.520;30.486;2023-10-09T03:37:37;99868.72;;;5.93;65.48
45253;BME280;63171;50.520;30.486;2023-10-09T03:38:28;99861.69;;;5.95;65.71
45253;BME280;63171;50.520;30.486;2023-10-09T03:39:23;99880.25;;;5.86;65.73
45253;BME280;63171;50.520;30.486;2023-10-09T03:40:42;99877.06;;;5.79;65.77
45253;BME280;63171;50.520;30.486;2023-10-09T03:41:33;99873.63;;;5.79;65.69
45253;BME280;63171;50.520;30.486;2023-10-09T03:42:30;99873.50;;;5.82;65.97
45253;BME280;63171;50.520;30.486;2023-10-09T03:43:22;99870.19;;;5.78;65.73
45253;BME280;63171;50.520;30.486;2023-10-09T03:44:13;99873.50;;;5.82;65.91
45253;BME280;63171;50.520;30.486;2023-10-09T03:45:03;99873.81;;;5.74;66.26
45253;BME280;63171;50.520;30.486;2023-10-09T03:46:01;99870.34;;;5.75;66.14
45253;BME280;63171;50.520;30.486;2023-10-09T03:46:54;99873.63;;;5.79;66.08
45253;BME280;63171;50.520;30.486;2023-10-09T03:47:43;99878.06;;;5.77;66.34
45253;BME280;63171;50.520;30.486;2023-10-09T03:48:37;99877.47;;;5.70;66.25
45253;BME280;63171;50.520;30.486;2023-10-09T03:49:28;99873.94;;;5.71;66.50
45253;BME280;63171;50.520;30.486;2023-10-09T03:50:18;99880.72;;;5.75;66.56
45253;BME280;63171;50.520;30.486;2023-10-09T03:51:15;99888.44;;;5.77;66.66
45253;BME280;63171;50.520;30.486;2023-10-09T03:52:11;99891.22;;;5.72;66.60
45253;BME280;63171;50.520;30.486;2023-10-09T03:53:01;99878.44;;;5.68;66.67
45253;BME280;63171;50.520;30.486;2023-10-09T03:53:52;99893.13;;;5.69;66.64
45253;BME280;63171;50.520;30.486;2023-10-09T03:54:43;99891.28;;;5.71;66.92
45253;BME280;63171;50.520;30.486;2023-10-09T03:55:35;99890.31;;;5.73;66.95
45253;BME280;63171;50.520;30.486;2023-10-09T03:56:27;99894.16;;;5.64;66.99
45253;BME280;63171;50.520;30.486;2023-10-09T03:57:18;99891.78;;;5.58;66.77
45253;BME280;63171;50.520;30.486;2023-10-09T03:58:09;99897.84;;;5.59;66.76
45253;BME280;63171;50.520;30.486;2023-10-09T03:59:00;99897.97;;;5.56;67.00
45253;BME280;63171;50.520;30.486;2023-10-09T03:59:50;99897.97;;;5.56;67.34
45253;BME280;63171;50.520;30.486;2023-10-09T04:00:43;99897.25;;;5.52;67.36
45253;BME280;63171;50.520;30.486;2023-10-09T04:01:35;99899.16;;;5.49;67.43
45253;BME280;63171;50.520;30.486;2023-10-09T04:02:27;99892.19;;;5.49;67.48
45253;BME280;63171;50.520;30.486;2023-10-09T04:03:20;99902.25;;;5.57;67.79
45253;BME280;63171;50.520;30.486;2023-10-09T04:04:09;99906.44;;;5.61;67.60
45253;BME280;63171;50.520;30.486;2023-10-09T04:05:03;99900.44;;;5.59;67.65
45253;BME280;63171;50.520;30.486;2023-10-09T04:05:56;99892.00;;;5.54;67.68
45253;BME280;63171;50.520;30.486;2023-10-09T04:06:47;99893.16;;;5.47;67.87
45253;BME280;63171;50.520;30.486;2023-10-09T04:07:36;99903.72;;;5.42;67.93
45253;BME280;63171;50.520;30.486;2023-10-09T04:08:26;99906.31;;;5.42;68.17
45253;BME280;63171;50.520;30.486;2023-10-09T04:09:19;99903.00;;;5.39;67.92
45253;BME280;63171;50.520;30.486;2023-10-09T04:10:18;99899.16;;;5.49;68.12
45253;BME280;63171;50.520;30.486;2023-10-09T04:11:23;99912.44;;;5.41;68.26
45253;BME280;63171;50.520;30.486;2023-10-09T04:12:13;99903.31;;;5.31;68.22
45253;BME280;63171;50.520;30.486;2023-10-09T04:13:11;99899.56;;;5.38;68.20
45253;BME280;63171;50.520;30.486;2023-10-09T04:14:01;99907.44;;;5.37;68.51
45253;BME280;63171;50.520;30.486;2023-10-09T04:14:59;99908.00;;;5.43;68.54
45253;BME280;63171;50.520;30.486;2023-10-09T04:15:52;99911.38;;;5.45;68.45
45253;BME280;63171;50.520;30.486;2023-10-09T04:16:42;99896.06;;;5.39;68.68
45253;BME280;63171;50.520;30.486;2023-10-09T04:17:41;99896.38;;;5.31;68.61
45253;BME280;63171;50.520;30.486;2023-10-09T04:18:32;99906.88;;;5.28;69.04
45253;BME280;63171;50.520;30.486;2023-10-09T04:19:22;99908.63;;;5.28;68.84
45253;BME280;63171;50.520;30.486;2023-10-09T04:20:12;99913.56;;;5.34;68.95
45253;BME280;63171;50.520;30.486;2023-10-09T04:21:29;99901.56;;;5.31;68.91
45253;BME280;63171;50.520;30.486;2023-10-09T04:22:23;99904.00;;;5.36;69.38
45253;BME280;63171;50.520;30.486;2023-10-09T04:23:15;99904.00;;;5.36;68.99
45253;BME280;63171;50.520;30.486;2023-10-09T04:24:06;99909.84;;;5.41;69.38
45253;BME280;63171;50.520;30.486;2023-10-09T04:25:12;99906.31;;;5.42;69.41
45253;BME280;63171;50.520;30.486;2023-10-09T04:26:03;99896.78;;;5.43;69.50
45253;BME280;63171;50.520;30.486;2023-10-09T04:26:59;99909.84;;;5.41;69.74
45253;BME280;63171;50.520;30.486;2023-10-09T04:27:52;99910.63;;;5.43;69.49
45253;BME280;63171;50.520;30.486;2023-10-09T04:28:43;99909.63;;;5.46;69.49
45253;BME280;63171;50.520;30.486;2023-10-09T04:29:40;99907.44;;;5.37;69.52
45253;BME280;63171;50.520;30.486;2023-10-09T04:30:36;99910.19;;;5.32;69.51
45253;BME280;63171;50.520;30.486;2023-10-09T04:31:29;99911.09;;;5.31;69.67
45253;BME280;63171;50.520;30.486;2023-10-09T04:32:21;99905.06;;;5.30;69.83
45253;BME280;63171;50.520;30.486;2023-10-09T04:33:14;99905.75;;;5.36;69.82
45253;BME280;63171;50.520;30.486;2023-10-09T04:34:17;99904.94;;;5.33;69.87
45253;BME280;63171;50.520;30.486;2023-10-09T04:35:17;99911.78;;;5.36;69.99
45253;BME280;63171;50.520;30.486;2023-10-09T04:36:13;99908.75;;;5.25;69.94
45253;BME280;63171;50.520;30.486;2023-10-09T04:37:10;99903.69;;;5.22;70.06
45253;BME280;63171;50.520;30.486;2023-10-09T04:38:13;99929.66;;;5.22;70.29
45253;BME280;63171;50.520;30.486;2023-10-09T04:39:03;99915.66;;;5.26;69.99
45253;BME280;63171;50.520;30.486;2023-10-09T04:40:08;99933.50;;;5.33;70.14
45253;BME280;63171;50.520;30.486;2023-10-09T04:41:01;99923.09;;;5.33;70.56
45253;BME280;63171;50.520;30.486;2023-10-09T04:41:54;99922.03;;;5.39;70.51
45253;BME280;63171;50.520;30.486;2023-10-09T04:43:06;99931.16;;;5.49;70.43
45253;BME280;63171;50.520;30.486;2023-10-09T04:43:57;99931.75;;;5.56;70.36
45253;BME280;63171;50.520;30.486;2023-10-09T04:45:05;99936.75;;;5.60;70.43
45253;BME280;63171;50.520;30.486;2023-10-09T04:46:24;99936.56;;;5.65;70.66
45253;BME280;63171;50.520;30.486;2023-10-09T04:47:15;99935.59;;;5.68;70.57
45253;BME280;63171;50.520;30.486;2023-10-09T04:48:08;99940.66;;;5.71;70.84